South Portland, Maine
Current Conditions -  °F | °C
As of 9:51 PM on Saturday 22 Nov 2014 (Local Time) from KPWM Reporting Station
Broken Clouds Broken Clouds  
Wind Chill: 31°   Ceiling: 10000
Heat Index: 39°   Visibility: 10mi
Dew Point: 11°   Wind: 14mph
Humidity: 32%   Direction: 220°SW
Pressure: 29.97"   Gusts: 21mph
Location:  43.64°N, 70.25°W
Report Text: KPWM 230251Z 22012G18KT 10SM BKN100 04/M12 A2997 RMK AO2 SLP150 T00391117 56017
Loading
Personal Weather Stations






























Interactive Weather Map New forecast layout! Learn more

10-Day Weather Forecast

Advertisements
Track Severe Weather on mobile